Airfield :
LOGIN :

Register | Disclaimer

   EN    FR    IT 

 










Legend :    VFR   Marginal VFR   IFR   Intensive IFR   Very Intensive IFR
Visi :
Ceiling :
>= 8 km
>= 3000ft
5 to 8 km
1000 to 3000 ft
1500m to 5 km
500 to 1000 ft
800 to 1500m
200 to 500 ft
< 800m
< 200 ft
Symbols :   Thunderstorms  Fog  Heavy snow  Heavy precipitations  Wind > 20 kt
SIGMETs :     Misc.  Thunderstorms  Icing  Turbulence  Mountain Waves  Volcanic Ashes






- Airport Elevation : 76 ft
- IATA code : KID


ESMK - Kristianstad

CURRENT METAR :
  • 251820Z 22005KT 9999 FEW048 14/09 Q1011

EXPIRED METARs :
  • 251750Z 22005KT 9999 FEW051 14/08 Q1011
  • 251720Z 23008KT 9999 FEW036 15/08 Q1011
  • 251650Z 25007KT 220V290 9999 FEW038 15/08 Q1011
  • 251620Z 24008KT 9999 FEW040 SCT080 15/08 Q1011
  • 251550Z 27009KT 230V300 9999 SCT042 BKN086 14/08 Q1011

TAF TAF ESMK
Valid from the 25 at 15:00 until the 25 at 19:00 UTC


251407Z 2515/2519 23010KT 9999 SCT030
TEMPO 2515/2519 SCT020CB



MET'MAP, your aeronautical weather chart ! - Copyright ORBIFLY December 2007 - Disclaimer

ORBIFLY MET'MAP TEAM :

Programming & Development : Alexandra Zaïnal
Original concept : Baudouin d'Aumeries
Technical & hardware support : Manuel Goepfert
Assistance : Marc-Olivier Méhu

Contact : metmap@orbifly.com




SOURCES & CREDITS :

   NOAA